createdAt,value
2022-08-31T00:00:33.340Z,9.30
2022-08-31T00:03:19.075Z,10.38
2022-08-31T00:05:46.265Z,10.40
2022-08-31T00:08:13.168Z,8.73
2022-08-31T00:10:43.284Z,13.02
2022-08-31T00:13:12.821Z,8.60
2022-08-31T00:15:40.225Z,9.63
2022-08-31T00:18:07.951Z,10.65
2022-08-31T00:20:35.993Z,9.82
2022-08-31T00:23:08.234Z,9.32
2022-08-31T00:25:35.928Z,10.02
2022-08-31T00:28:03.993Z,9.90
2022-08-31T00:30:31.604Z,8.48
2022-08-31T00:32:59.146Z,9.15
2022-08-31T00:35:31.279Z,11.25
2022-08-31T00:37:58.272Z,9.02
2022-08-31T00:40:26.268Z,8.88
2022-08-31T00:42:53.159Z,11.50
2022-08-31T00:45:21.175Z,11.00
2022-08-31T00:47:48.554Z,9.23
2022-08-31T00:50:17.950Z,10.02
2022-08-31T00:52:49.871Z,13.98
2022-08-31T00:55:22.364Z,11.15
2022-08-31T00:57:52.627Z,9.60
2022-08-31T01:00:24.074Z,10.25
2022-08-31T01:02:51.475Z,11.35
2022-08-31T01:05:19.422Z,11.07
2022-08-31T01:07:47.979Z,15.30
2022-08-31T01:10:17.154Z,10.00
2022-08-31T01:12:45.752Z,18.13
2022-08-31T01:15:14.725Z,10.40
2022-08-31T01:17:44.240Z,9.82
2022-08-31T01:20:34.933Z,11.90
2022-08-31T01:23:42.935Z,11.25
2022-08-31T01:26:12.062Z,12.88
2022-08-31T01:28:38.975Z,11.43
2022-08-31T01:31:15.782Z,10.68
2022-08-31T01:33:42.756Z,11.68
2022-08-31T01:36:14.260Z,12.27
2022-08-31T01:38:44.134Z,16.55
2022-08-31T01:41:14.376Z,9.68
2022-08-31T01:43:41.801Z,12.10
2022-08-31T01:46:12.657Z,11.20
2022-08-31T01:48:44.523Z,12.53
2022-08-31T01:53:42.633Z,11.10
2022-08-31T01:56:15.005Z,12.38
2022-08-31T01:58:42.199Z,11.00
2022-08-31T02:01:31.270Z,13.00
2022-08-31T02:03:59.310Z,10.15
2022-08-31T02:06:27.015Z,14.40
2022-08-31T02:08:53.858Z,11.35
2022-08-31T02:11:20.872Z,10.73
2022-08-31T02:13:47.862Z,12.77
2022-08-31T02:16:15.027Z,10.65
2022-08-31T02:18:41.970Z,9.27
2022-08-31T02:21:09.011Z,13.30
2022-08-31T02:23:35.986Z,11.05
2022-08-31T02:26:02.962Z,11.18
2022-08-31T02:28:29.955Z,13.32
2022-08-31T02:30:57.013Z,12.80
2022-08-31T02:33:25.069Z,12.02
2022-08-31T02:35:53.666Z,11.18
2022-08-31T02:38:21.668Z,11.73
2022-08-31T02:40:50.611Z,12.25
2022-08-31T02:43:24.799Z,12.75
2022-08-31T02:45:53.513Z,12.07
2022-08-31T02:48:21.502Z,11.68
2022-08-31T02:50:50.575Z,11.38
2022-08-31T02:53:19.615Z,12.32
2022-08-31T02:55:47.351Z,11.40
2022-08-31T02:58:15.087Z,13.75
2022-08-31T03:00:46.807Z,16.40
2022-08-31T03:03:14.237Z,14.73
2022-08-31T03:05:41.260Z,12.73
2022-08-31T03:08:08.421Z,11.57
2022-08-31T03:10:35.410Z,14.50
2022-08-31T03:13:02.585Z,14.77
2022-08-31T03:15:29.992Z,10.50
2022-08-31T03:17:57.381Z,14.35
2022-08-31T03:20:27.060Z,11.25
2022-08-31T03:22:54.493Z,15.40
2022-08-31T03:25:24.442Z,13.48
2022-08-31T03:27:51.720Z,12.45
2022-08-31T03:30:21.553Z,13.90
2022-08-31T03:32:48.973Z,10.88
2022-08-31T03:35:16.165Z,15.30
2022-08-31T03:37:43.045Z,15.93
2022-08-31T03:40:10.643Z,13.95
2022-08-31T03:42:37.470Z,16.63
2022-08-31T03:45:05.245Z,16.48
2022-08-31T03:47:32.153Z,16.42
2022-08-31T03:49:59.047Z,14.52
2022-08-31T03:52:26.946Z,16.75
2022-08-31T03:54:53.779Z,14.68
2022-08-31T03:57:20.590Z,16.77
2022-08-31T03:59:47.541Z,17.25
2022-08-31T04:02:14.420Z,20.35
2022-08-31T04:04:41.280Z,15.73
2022-08-31T04:07:08.074Z,15.10
2022-08-31T04:09:34.949Z,14.10
2022-08-31T04:12:01.948Z,13.65
2022-08-31T04:14:28.763Z,14.00
2022-08-31T04:16:56.750Z,14.75
2022-08-31T04:19:27.551Z,15.48
2022-08-31T04:21:56.134Z,12.20
2022-08-31T04:24:24.694Z,12.15
2022-08-31T04:26:53.960Z,13.25
2022-08-31T04:29:22.328Z,13.65
2022-08-31T04:31:50.874Z,15.05
2022-08-31T04:34:18.969Z,16.50
2022-08-31T04:36:46.438Z,13.32
2022-08-31T04:39:14.351Z,14.50
2022-08-31T04:41:42.103Z,16.52
2022-08-31T04:44:09.346Z,13.43
2022-08-31T04:46:38.130Z,13.40
2022-08-31T04:49:08.030Z,13.55
2022-08-31T04:51:36.029Z,12.70
2022-08-31T04:54:05.630Z,14.18
2022-08-31T04:56:34.424Z,11.73
2022-08-31T04:59:04.511Z,16.75
2022-08-31T05:01:42.688Z,13.93
2022-08-31T05:04:10.604Z,16.33
2022-08-31T05:06:40.124Z,15.77
2022-08-31T05:09:13.705Z,17.23
2022-08-31T05:11:41.228Z,15.30
2022-08-31T05:14:09.415Z,15.90
2022-08-31T05:16:39.293Z,16.67
2022-08-31T05:19:06.926Z,13.23
2022-08-31T05:21:36.842Z,13.77
2022-08-31T05:24:10.273Z,13.95
2022-08-31T05:26:44.536Z,14.23
2022-08-31T05:29:14.426Z,14.75
2022-08-31T05:31:43.039Z,14.98
2022-08-31T05:34:12.627Z,15.50
2022-08-31T05:36:41.676Z,17.85
2022-08-31T05:39:13.075Z,11.45
2022-08-31T05:41:42.062Z,14.88
2022-08-31T05:44:12.724Z,11.82
2022-08-31T05:46:39.826Z,11.88
2022-08-31T05:49:08.115Z,14.32
2022-08-31T05:51:38.627Z,17.13
2022-08-31T05:54:06.377Z,12.75
2022-08-31T05:56:34.550Z,14.52
2022-08-31T05:59:01.599Z,15.27
2022-08-31T06:01:31.914Z,16.52
2022-08-31T06:04:01.248Z,11.65
2022-08-31T06:06:29.061Z,12.73
2022-08-31T06:08:57.102Z,15.68
2022-08-31T06:11:27.396Z,16.17
2022-08-31T06:13:56.095Z,13.55
2022-08-31T06:16:23.662Z,13.27
2022-08-31T06:18:51.422Z,16.42
2022-08-31T06:21:21.342Z,11.10
2022-08-31T06:23:50.332Z,14.13
2022-08-31T06:26:19.056Z,11.55
2022-08-31T06:28:47.813Z,13.65
2022-08-31T06:31:31.128Z,12.80
2022-08-31T06:33:59.453Z,12.32
2022-08-31T06:36:28.759Z,12.85
2022-08-31T06:38:59.290Z,13.77
2022-08-31T06:41:36.369Z,13.18
2022-08-31T06:44:06.316Z,16.00
2022-08-31T06:46:34.544Z,12.38
2022-08-31T06:49:05.893Z,17.27
2022-08-31T06:51:38.097Z,12.23
2022-08-31T06:54:29.120Z,16.00
2022-08-31T06:57:02.764Z,13.98
2022-08-31T06:59:30.133Z,14.23
2022-08-31T07:02:01.614Z,15.35
2022-08-31T07:04:33.053Z,13.77
2022-08-31T07:07:00.204Z,12.60
2022-08-31T07:09:27.515Z,12.43
2022-08-31T07:11:57.071Z,11.73
2022-08-31T07:14:26.699Z,13.00
2022-08-31T07:16:56.616Z,12.77
2022-08-31T07:19:24.604Z,11.20
2022-08-31T07:21:54.656Z,10.75
2022-08-31T07:24:24.221Z,12.38
2022-08-31T07:26:59.868Z,11.82
2022-08-31T07:29:34.241Z,12.40
2022-08-31T07:32:01.204Z,10.85
2022-08-31T07:34:33.062Z,11.18
2022-08-31T07:37:19.629Z,15.25
2022-08-31T07:40:07.737Z,10.20
2022-08-31T07:42:43.758Z,12.95
2022-08-31T07:45:20.010Z,11.88
2022-08-31T07:47:53.406Z,13.07
2022-08-31T07:50:21.525Z,10.40
2022-08-31T07:54:03.337Z,12.80
2022-08-31T07:56:34.638Z,11.02
2022-08-31T07:59:03.757Z,9.95
2022-08-31T08:01:35.946Z,11.45
2022-08-31T08:04:06.283Z,12.52
2022-08-31T08:06:34.196Z,9.52
2022-08-31T08:09:21.958Z,10.23
2022-08-31T08:11:55.185Z,11.40
2022-08-31T08:14:30.254Z,10.40
2022-08-31T08:16:57.233Z,10.10
2022-08-31T08:19:24.166Z,10.57
2022-08-31T08:21:51.120Z,12.35
2022-08-31T08:24:19.742Z,9.55
2022-08-31T08:26:52.188Z,10.05
2022-08-31T08:29:21.055Z,10.55
2022-08-31T08:31:52.175Z,14.40
2022-08-31T08:34:19.977Z,11.35
2022-08-31T08:36:48.156Z,13.15
2022-08-31T08:39:17.516Z,13.32
2022-08-31T08:41:46.409Z,10.43
2022-08-31T08:44:17.793Z,11.45
2022-08-31T08:49:30.091Z,9.77
2022-08-31T08:52:07.173Z,14.60
2022-08-31T08:54:38.894Z,10.18
2022-08-31T08:59:45.321Z,12.32
2022-08-31T09:02:25.136Z,10.07
2022-08-31T09:05:15.399Z,10.77
2022-08-31T09:08:11.520Z,11.55
2022-08-31T09:10:51.102Z,13.48
2022-08-31T09:13:36.966Z,12.13
2022-08-31T09:16:28.166Z,9.88
2022-08-31T09:18:57.478Z,10.20
2022-08-31T09:21:37.579Z,10.55
2022-08-31T09:24:12.391Z,12.88
2022-08-31T09:26:58.300Z,10.57
2022-08-31T09:29:30.678Z,10.95
2022-08-31T09:32:09.947Z,13.77
2022-08-31T09:34:41.263Z,12.00
2022-08-31T09:37:33.264Z,10.82
2022-08-31T09:43:27.253Z,11.02
2022-08-31T09:46:07.505Z,11.18
2022-08-31T09:48:51.423Z,13.60
2022-08-31T09:51:34.353Z,10.30
2022-08-31T09:54:25.679Z,13.30
2022-08-31T09:56:57.991Z,13.07
2022-08-31T09:59:48.065Z,13.50
2022-08-31T10:02:22.792Z,10.70
2022-08-31T10:04:55.520Z,14.05
2022-08-31T10:07:32.641Z,11.70
2022-08-31T10:10:05.918Z,10.95
2022-08-31T10:13:16.348Z,11.50
2022-08-31T10:15:55.411Z,11.02
2022-08-31T10:18:35.279Z,11.73
2022-08-31T10:21:07.880Z,11.52
2022-08-31T10:23:56.327Z,11.10
2022-08-31T10:26:36.087Z,15.20
2022-08-31T10:29:19.981Z,12.15
2022-08-31T10:31:53.791Z,14.40
2022-08-31T10:34:43.100Z,12.57
2022-08-31T10:37:20.671Z,20.52
2022-08-31T10:39:52.271Z,16.70
2022-08-31T10:42:26.914Z,15.60
2022-08-31T10:44:59.650Z,14.20
2022-08-31T10:47:34.130Z,12.75
2022-08-31T10:50:05.194Z,13.23
2022-08-31T10:52:58.266Z,11.10
2022-08-31T10:55:40.492Z,14.70
2022-08-31T10:58:07.213Z,10.38
2022-08-31T11:01:12.142Z,12.63
2022-08-31T11:04:20.328Z,12.05
2022-08-31T11:06:55.586Z,12.43
2022-08-31T11:09:32.742Z,10.38
2022-08-31T11:12:11.532Z,9.23
2022-08-31T11:15:06.363Z,14.82
2022-08-31T11:17:55.577Z,13.85
2022-08-31T11:20:58.094Z,9.38
2022-08-31T11:23:50.014Z,11.90
2022-08-31T11:26:42.060Z,10.38
2022-08-31T11:31:55.171Z,12.68
2022-08-31T11:34:30.745Z,12.27
2022-08-31T11:37:04.952Z,13.23
2022-08-31T11:39:35.997Z,11.07
2022-08-31T11:42:53.748Z,10.73
2022-08-31T11:45:32.282Z,12.55
2022-08-31T11:47:59.496Z,11.02
2022-08-31T11:50:27.771Z,10.15
2022-08-31T11:52:56.786Z,12.43
2022-08-31T11:55:45.318Z,11.27
2022-08-31T11:58:33.700Z,13.60
2022-08-31T12:01:09.372Z,13.43
2022-08-31T12:03:50.700Z,14.95
2022-08-31T12:06:58.233Z,14.00
2022-08-31T12:09:38.463Z,11.90
2022-08-31T12:12:17.610Z,15.27
2022-08-31T12:14:56.819Z,13.75
2022-08-31T12:17:23.752Z,14.02
2022-08-31T12:20:16.203Z,15.05
2022-08-31T12:23:30.228Z,17.10
2022-08-31T12:26:25.618Z,13.63
2022-08-31T12:29:13.982Z,14.82
2022-08-31T12:31:41.653Z,14.23
2022-08-31T12:34:17.052Z,13.02
2022-08-31T12:36:44.676Z,15.43
2022-08-31T12:39:30.461Z,14.18
2022-08-31T12:42:02.746Z,15.02
2022-08-31T12:44:33.531Z,18.08
2022-08-31T12:47:17.301Z,16.63
2022-08-31T12:50:04.037Z,14.13
2022-08-31T12:52:57.074Z,16.40
2022-08-31T12:55:30.101Z,12.95
2022-08-31T12:58:51.104Z,15.90
2022-08-31T13:01:24.218Z,16.33
2022-08-31T13:03:54.950Z,18.27
2022-08-31T13:06:48.536Z,13.10
2022-08-31T13:09:26.247Z,13.23
2022-08-31T13:11:55.647Z,14.60
2022-08-31T13:14:43.303Z,14.05
2022-08-31T13:17:18.145Z,12.57
2022-08-31T13:19:57.595Z,12.73
2022-08-31T13:22:42.759Z,15.05
2022-08-31T13:25:36.338Z,15.70
2022-08-31T13:28:12.520Z,13.13
2022-08-31T13:30:56.247Z,13.90
2022-08-31T13:33:34.994Z,15.80
2022-08-31T13:36:09.875Z,14.77
2022-08-31T13:38:53.319Z,14.00
2022-08-31T13:41:38.663Z,14.35
2022-08-31T13:44:09.798Z,17.05
2022-08-31T13:46:43.858Z,18.00
2022-08-31T13:49:35.662Z,12.35
2022-08-31T13:52:13.850Z,16.52
2022-08-31T13:54:41.000Z,12.15
2022-08-31T13:57:25.858Z,14.38
2022-08-31T13:59:52.942Z,11.70
2022-08-31T14:02:20.305Z,14.13
2022-08-31T14:04:57.503Z,12.00
2022-08-31T14:07:25.874Z,13.10
2022-08-31T14:10:02.431Z,11.98
2022-08-31T14:12:36.367Z,12.48
2022-08-31T14:15:17.579Z,14.25
2022-08-31T14:20:53.391Z,14.32
2022-08-31T14:23:31.586Z,13.73
2022-08-31T14:26:07.677Z,11.52
2022-08-31T14:28:43.126Z,11.65
2022-08-31T14:31:24.515Z,12.15
2022-08-31T14:34:22.087Z,12.45
2022-08-31T14:37:08.769Z,11.45
2022-08-31T14:39:47.734Z,11.77
2022-08-31T14:42:37.224Z,13.15
2022-08-31T14:45:07.568Z,13.13
2022-08-31T14:47:44.180Z,12.30
2022-08-31T14:50:13.813Z,13.93
2022-08-31T14:52:46.652Z,13.60
2022-08-31T14:55:14.417Z,13.73
2022-08-31T14:57:47.116Z,13.73
2022-08-31T15:00:22.018Z,15.98
2022-08-31T15:02:49.723Z,11.63
2022-08-31T15:05:18.095Z,11.57
2022-08-31T15:07:46.944Z,14.15
2022-08-31T15:10:13.873Z,9.88
2022-08-31T15:12:40.754Z,10.77
2022-08-31T15:15:09.278Z,12.43
2022-08-31T15:17:36.689Z,11.45
2022-08-31T15:20:06.495Z,11.10
2022-08-31T15:22:35.145Z,8.48
2022-08-31T15:25:02.364Z,8.00
2022-08-31T15:27:31.429Z,9.60
2022-08-31T15:30:07.880Z,9.75
2022-08-31T15:32:39.706Z,8.88
2022-08-31T15:35:07.211Z,10.13
2022-08-31T15:37:34.054Z,6.43
2022-08-31T15:40:03.631Z,8.27
2022-08-31T15:42:36.716Z,7.28
2022-08-31T15:45:04.674Z,10.35
2022-08-31T15:47:53.127Z,8.20
2022-08-31T15:50:23.528Z,8.32
2022-08-31T15:52:54.704Z,8.52
2022-08-31T15:55:31.376Z,11.20
2022-08-31T15:57:59.417Z,9.27
2022-08-31T16:00:32.657Z,6.45
2022-08-31T16:03:01.593Z,7.88
2022-08-31T16:05:39.332Z,6.70
2022-08-31T16:08:10.318Z,9.20
2022-08-31T16:10:41.599Z,6.18
2022-08-31T16:13:09.514Z,7.25
2022-08-31T16:15:38.282Z,6.35
2022-08-31T16:18:06.167Z,8.35
2022-08-31T16:20:34.736Z,6.78
2022-08-31T16:23:03.204Z,10.05
2022-08-31T16:25:47.584Z,6.30
2022-08-31T16:28:18.753Z,9.00
2022-08-31T16:30:45.842Z,7.65
2022-08-31T16:33:12.811Z,7.65
2022-08-31T16:35:39.786Z,6.20
2022-08-31T16:38:07.408Z,5.93
2022-08-31T16:40:35.570Z,7.80
2022-08-31T16:43:03.312Z,7.32
2022-08-31T16:45:30.317Z,8.10
2022-08-31T16:48:17.321Z,12.88
2022-08-31T16:50:48.634Z,5.60
2022-08-31T16:53:18.414Z,7.07
2022-08-31T16:55:47.618Z,5.78
2022-08-31T16:58:24.859Z,6.93
2022-08-31T17:01:03.677Z,8.13
2022-08-31T17:03:30.615Z,6.88
2022-08-31T17:05:57.514Z,7.65
2022-08-31T17:08:24.523Z,8.10
2022-08-31T17:10:52.915Z,6.53
2022-08-31T17:13:20.123Z,8.85
2022-08-31T17:15:48.980Z,7.93
2022-08-31T17:18:15.966Z,7.90
2022-08-31T17:20:43.262Z,7.55
2022-08-31T17:23:12.333Z,7.35
2022-08-31T17:25:39.193Z,6.45
2022-08-31T17:28:07.658Z,6.30
2022-08-31T17:30:34.828Z,7.03
2022-08-31T17:33:01.778Z,6.30
2022-08-31T17:35:32.163Z,7.82
2022-08-31T17:37:59.791Z,8.38
2022-08-31T17:40:26.943Z,10.63
2022-08-31T17:42:59.204Z,11.02
2022-08-31T17:45:27.780Z,9.02
2022-08-31T17:47:55.092Z,9.93
2022-08-31T17:50:22.260Z,8.15
2022-08-31T17:52:49.246Z,8.57
2022-08-31T17:55:16.370Z,7.97
2022-08-31T17:57:44.314Z,9.15
2022-08-31T18:00:14.687Z,11.43
2022-08-31T18:02:41.594Z,10.65
2022-08-31T18:05:12.162Z,11.18
2022-08-31T18:07:40.991Z,10.05
2022-08-31T18:10:09.552Z,11.95
2022-08-31T18:12:41.390Z,11.57
2022-08-31T18:15:10.757Z,12.15
2022-08-31T18:17:37.830Z,10.68
2022-08-31T18:20:05.987Z,12.10
2022-08-31T18:22:32.992Z,10.23
2022-08-31T18:24:59.989Z,13.38
2022-08-31T18:27:27.252Z,9.48
2022-08-31T18:29:56.398Z,11.52
2022-08-31T18:32:25.278Z,10.45
2022-08-31T18:34:57.094Z,14.55
2022-08-31T18:37:26.108Z,10.90
2022-08-31T18:40:12.252Z,11.45
2022-08-31T18:42:57.662Z,12.82
2022-08-31T18:45:26.148Z,11.63
2022-08-31T18:50:44.621Z,13.23
2022-08-31T18:53:15.630Z,13.73
2022-08-31T18:55:54.840Z,14.15
2022-08-31T18:58:21.800Z,13.35
2022-08-31T19:00:57.834Z,14.25
2022-08-31T19:03:27.602Z,14.55
2022-08-31T19:05:56.796Z,14.30
2022-08-31T19:57:22.766Z,16.15
2022-08-31T19:59:52.334Z,18.70
2022-08-31T20:02:19.466Z,17.15
2022-08-31T20:04:47.045Z,19.80
2022-08-31T20:07:17.413Z,16.02
2022-08-31T20:09:44.752Z,19.95
2022-08-31T20:12:11.973Z,16.83
2022-08-31T20:14:39.195Z,16.40
2022-08-31T20:17:11.472Z,16.38
2022-08-31T20:19:39.754Z,16.38
2022-08-31T20:22:08.140Z,19.33
2022-08-31T20:24:39.269Z,16.90
2022-08-31T20:27:16.634Z,19.17
2022-08-31T20:29:45.866Z,16.42
2022-08-31T20:32:12.884Z,16.77
2022-08-31T20:34:39.916Z,16.38
2022-08-31T20:37:07.647Z,18.40
2022-08-31T20:39:35.601Z,18.58
2022-08-31T20:42:03.430Z,20.23
2022-08-31T20:44:34.901Z,18.58
2022-08-31T20:47:27.229Z,18.90
2022-08-31T20:50:00.071Z,20.83
2022-08-31T20:52:30.178Z,19.95
2022-08-31T20:55:02.731Z,21.88
2022-08-31T20:57:34.568Z,21.50
2022-08-31T21:00:05.379Z,20.65
2022-08-31T21:02:33.328Z,20.07
2022-08-31T21:05:26.774Z,21.42
2022-08-31T21:07:48.888Z,20.52
2022-08-31T21:10:15.817Z,19.42
2022-08-31T21:47:00.396Z,19.67
2022-08-31T22:28:59.376Z,23.77
2022-08-31T22:31:27.553Z,21.73
2022-08-31T22:33:54.773Z,24.67
2022-08-31T22:36:31.705Z,26.73
2022-08-31T22:39:07.380Z,27.23
2022-08-31T22:41:37.414Z,25.58
2022-08-31T22:44:06.422Z,25.90
2022-08-31T22:46:35.096Z,24.35
2022-08-31T22:49:02.170Z,28.55
2022-08-31T22:51:33.563Z,27.70
2022-08-31T22:54:00.289Z,27.40
2022-08-31T22:56:30.354Z,25.10
2022-08-31T22:59:00.340Z,28.42
2022-08-31T23:01:34.736Z,26.88
2022-08-31T23:04:06.889Z,29.27
2022-08-31T23:06:36.242Z,27.77
2022-08-31T23:09:06.895Z,26.17
2022-08-31T23:11:34.530Z,25.90
2022-08-31T23:14:06.620Z,26.05
2022-08-31T23:16:37.987Z,25.95
2022-08-31T23:19:12.437Z,26.13
2022-08-31T23:21:44.499Z,23.40
2022-08-31T23:24:19.964Z,27.15
2022-08-31T23:26:48.519Z,27.83
2022-08-31T23:29:18.366Z,28.83
2022-08-31T23:31:49.105Z,28.77
2022-08-31T23:34:17.019Z,26.35
2022-08-31T23:36:50.229Z,28.05
2022-08-31T23:39:20.100Z,28.08
2022-08-31T23:41:48.190Z,26.90
2022-08-31T23:44:17.723Z,27.33
2022-08-31T23:46:45.265Z,27.30
2022-08-31T23:49:15.383Z,24.38
2022-08-31T23:51:43.136Z,25.75
2022-08-31T23:54:10.720Z,27.58
2022-08-31T23:56:43.343Z,26.35
2022-08-31T23:59:14.557Z,28.70
